sensor_id;sensor_type;location;lat;lon;timestamp;temperature;humidity
22578;DHT22;11455;52.390;13.028;2023-04-28T00:01:22;9.80;1.00
22578;DHT22;11455;52.390;13.028;2023-04-28T00:03:48;9.80;1.00
22578;DHT22;11455;52.390;13.028;2023-04-28T00:06:13;9.80;1.00
22578;DHT22;11455;52.390;13.028;2023-04-28T00:08:39;9.80;1.00
22578;DHT22;11455;52.390;13.028;2023-04-28T00:11:09;9.80;1.00
22578;DHT22;11455;52.390;13.028;2023-04-28T00:13:34;9.80;1.00
22578;DHT22;11455;52.390;13.028;2023-04-28T00:16:00;9.80;1.00
22578;DHT22;11455;52.390;13.028;2023-04-28T00:18:28;9.80;1.00
22578;DHT22;11455;52.390;13.028;2023-04-28T00:20:54;9.80;1.00
22578;DHT22;11455;52.390;13.028;2023-04-28T00:23:19;9.80;1.00
22578;DHT22;11455;52.390;13.028;2023-04-28T00:25:51;9.60;1.00
22578;DHT22;11455;52.390;13.028;2023-04-28T00:28:17;9.50;1.00
22578;DHT22;11455;52.390;13.028;2023-04-28T00:30:43;9.50;1.00
22578;DHT22;11455;52.390;13.028;2023-04-28T00:33:08;9.40;1.00
22578;DHT22;11455;52.390;13.028;2023-04-28T00:35:39;9.40;1.00
22578;DHT22;11455;52.390;13.028;2023-04-28T00:38:06;9.30;1.00
22578;DHT22;11455;52.390;13.028;2023-04-28T00:40:35;9.30;1.00
22578;DHT22;11455;52.390;13.028;2023-04-28T00:43:01;9.40;1.00
22578;DHT22;11455;52.390;13.028;2023-04-28T00:45:27;9.40;1.00
22578;DHT22;11455;52.390;13.028;2023-04-28T00:47:53;9.40;1.00
22578;DHT22;11455;52.390;13.028;2023-04-28T00:50:19;9.50;1.00
22578;DHT22;11455;52.390;13.028;2023-04-28T00:52:45;9.50;1.00
22578;DHT22;11455;52.390;13.028;2023-04-28T00:55:11;9.30;1.00
22578;DHT22;11455;52.390;13.028;2023-04-28T00:57:39;9.30;1.00
22578;DHT22;11455;52.390;13.028;2023-04-28T01:00:05;9.30;1.00
22578;DHT22;11455;52.390;13.028;2023-04-28T01:02:31;9.40;1.00
22578;DHT22;11455;52.390;13.028;2023-04-28T01:04:56;9.40;1.00
22578;DHT22;11455;52.390;13.028;2023-04-28T01:07:25;9.30;1.00
22578;DHT22;11455;52.390;13.028;2023-04-28T01:09:51;9.30;1.00
22578;DHT22;11455;52.390;13.028;2023-04-28T01:12:22;9.30;1.00
22578;DHT22;11455;52.390;13.028;2023-04-28T01:14:51;9.20;1.00
22578;DHT22;11455;52.390;13.028;2023-04-28T01:17:17;9.30;1.00
22578;DHT22;11455;52.390;13.028;2023-04-28T01:19:42;9.30;1.00
22578;DHT22;11455;52.390;13.028;2023-04-28T01:22:08;9.30;1.00
22578;DHT22;11455;52.390;13.028;2023-04-28T01:24:38;9.30;1.00
22578;DHT22;11455;52.390;13.028;2023-04-28T01:27:06;9.30;1.00
22578;DHT22;11455;52.390;13.028;2023-04-28T01:29:31;9.20;1.00
22578;DHT22;11455;52.390;13.028;2023-04-28T01:31:57;9.20;1.00
22578;DHT22;11455;52.390;13.028;2023-04-28T01:34:23;9.30;1.00
22578;DHT22;11455;52.390;13.028;2023-04-28T01:36:48;9.30;1.00
22578;DHT22;11455;52.390;13.028;2023-04-28T01:39:14;9.30;1.00
22578;DHT22;11455;52.390;13.028;2023-04-28T01:41:42;9.30;1.00
22578;DHT22;11455;52.390;13.028;2023-04-28T01:44:08;9.30;1.00
22578;DHT22;11455;52.390;13.028;2023-04-28T01:46:33;9.20;1.00
22578;DHT22;11455;52.390;13.028;2023-04-28T01:48:59;9.10;1.00
22578;DHT22;11455;52.390;13.028;2023-04-28T01:51:25;9.10;1.00
22578;DHT22;11455;52.390;13.028;2023-04-28T01:53:51;9.10;1.00
22578;DHT22;11455;52.390;13.028;2023-04-28T01:56:17;9.10;1.00
22578;DHT22;11455;52.390;13.028;2023-04-28T01:58:43;9.10;1.00
22578;DHT22;11455;52.390;13.028;2023-04-28T02:01:09;9.00;1.00
22578;DHT22;11455;52.390;13.028;2023-04-28T02:03:35;9.00;1.00
22578;DHT22;11455;52.390;13.028;2023-04-28T02:06:02;8.90;1.00
22578;DHT22;11455;52.390;13.028;2023-04-28T02:08:28;9.00;1.00
22578;DHT22;11455;52.390;13.028;2023-04-28T02:10:53;9.00;1.00
22578;DHT22;11455;52.390;13.028;2023-04-28T02:13:20;9.00;1.00
22578;DHT22;11455;52.390;13.028;2023-04-28T02:15:45;8.90;1.00
22578;DHT22;11455;52.390;13.028;2023-04-28T02:18:11;8.90;1.00
22578;DHT22;11455;52.390;13.028;2023-04-28T02:20:40;8.90;1.00
22578;DHT22;11455;52.390;13.028;2023-04-28T02:23:07;9.00;1.00
22578;DHT22;11455;52.390;13.028;2023-04-28T02:25:33;9.00;1.00
22578;DHT22;11455;52.390;13.028;2023-04-28T02:27:59;9.10;1.00
22578;DHT22;11455;52.390;13.028;2023-04-28T02:30:33;9.10;1.00
22578;DHT22;11455;52.390;13.028;2023-04-28T02:32:58;9.10;1.00
22578;DHT22;11455;52.390;13.028;2023-04-28T02:35:24;9.10;1.00
22578;DHT22;11455;52.390;13.028;2023-04-28T02:37:50;9.10;1.00
22578;DHT22;11455;52.390;13.028;2023-04-28T02:40:17;9.10;1.00
22578;DHT22;11455;52.390;13.028;2023-04-28T02:42:43;9.10;1.00
22578;DHT22;11455;52.390;13.028;2023-04-28T02:45:08;9.10;1.00
22578;DHT22;11455;52.390;13.028;2023-04-28T02:47:34;9.10;1.00
22578;DHT22;11455;52.390;13.028;2023-04-28T02:50:00;9.20;1.00
22578;DHT22;11455;52.390;13.028;2023-04-28T02:52:25;9.10;1.00
22578;DHT22;11455;52.390;13.028;2023-04-28T02:54:51;9.10;1.00
22578;DHT22;11455;52.390;13.028;2023-04-28T02:57:19;9.10;1.00
22578;DHT22;11455;52.390;13.028;2023-04-28T02:59:45;9.00;1.00
22578;DHT22;11455;52.390;13.028;2023-04-28T03:02:11;9.10;1.00
22578;DHT22;11455;52.390;13.028;2023-04-28T03:04:39;9.10;1.00
22578;DHT22;11455;52.390;13.028;2023-04-28T03:07:05;9.10;1.00
22578;DHT22;11455;52.390;13.028;2023-04-28T03:09:30;9.10;1.00
22578;DHT22;11455;52.390;13.028;2023-04-28T03:11:56;9.20;1.00
22578;DHT22;11455;52.390;13.028;2023-04-28T03:14:22;9.20;1.00
22578;DHT22;11455;52.390;13.028;2023-04-28T03:16:47;9.20;1.00
22578;DHT22;11455;52.390;13.028;2023-04-28T03:19:13;9.10;1.00
22578;DHT22;11455;52.390;13.028;2023-04-28T03:21:39;9.10;1.00
22578;DHT22;11455;52.390;13.028;2023-04-28T03:24:05;9.10;1.00
22578;DHT22;11455;52.390;13.028;2023-04-28T03:26:31;9.20;1.00
22578;DHT22;11455;52.390;13.028;2023-04-28T03:29:00;9.20;1.00
22578;DHT22;11455;52.390;13.028;2023-04-28T03:31:25;9.20;1.00
22578;DHT22;11455;52.390;13.028;2023-04-28T03:33:51;9.20;1.00
22578;DHT22;11455;52.390;13.028;2023-04-28T03:36:17;9.30;1.00
22578;DHT22;11455;52.390;13.028;2023-04-28T03:38:43;9.20;1.00
22578;DHT22;11455;52.390;13.028;2023-04-28T03:41:09;9.00;1.00
22578;DHT22;11455;52.390;13.028;2023-04-28T03:43:37;9.10;1.00
22578;DHT22;11455;52.390;13.028;2023-04-28T03:46:32;9.10;1.00
22578;DHT22;11455;52.390;13.028;2023-04-28T03:48:59;9.10;1.00
22578;DHT22;11455;52.390;13.028;2023-04-28T03:51:29;9.10;1.00
22578;DHT22;11455;52.390;13.028;2023-04-28T03:53:56;9.10;1.00
22578;DHT22;11455;52.390;13.028;2023-04-28T03:56:28;9.00;1.00
22578;DHT22;11455;52.390;13.028;2023-04-28T03:58:54;9.00;1.00
22578;DHT22;11455;52.390;13.028;2023-04-28T04:01:21;9.00;1.00
22578;DHT22;11455;52.390;13.028;2023-04-28T04:03:47;9.00;1.00
22578;DHT22;11455;52.390;13.028;2023-04-28T04:06:13;9.00;1.00
22578;DHT22;11455;52.390;13.028;2023-04-28T04:08:39;8.90;1.00
22578;DHT22;11455;52.390;13.028;2023-04-28T04:11:05;8.90;1.00
22578;DHT22;11455;52.390;13.028;2023-04-28T04:13:31;8.90;1.00
22578;DHT22;11455;52.390;13.028;2023-04-28T04:15:57;8.90;1.00
22578;DHT22;11455;52.390;13.028;2023-04-28T04:18:23;8.90;1.00
22578;DHT22;11455;52.390;13.028;2023-04-28T04:21:08;8.90;1.00
22578;DHT22;11455;52.390;13.028;2023-04-28T04:23:36;8.90;1.00
22578;DHT22;11455;52.390;13.028;2023-04-28T04:26:04;9.00;1.00
22578;DHT22;11455;52.390;13.028;2023-04-28T04:28:30;9.00;1.00
22578;DHT22;11455;52.390;13.028;2023-04-28T04:30:58;8.90;1.00
22578;DHT22;11455;52.390;13.028;2023-04-28T04:33:26;9.00;1.00
22578;DHT22;11455;52.390;13.028;2023-04-28T04:35:52;9.00;1.00
22578;DHT22;11455;52.390;13.028;2023-04-28T04:38:18;8.90;1.00
22578;DHT22;11455;52.390;13.028;2023-04-28T04:40:47;9.00;1.00
22578;DHT22;11455;52.390;13.028;2023-04-28T04:43:12;9.00;1.00
22578;DHT22;11455;52.390;13.028;2023-04-28T04:45:44;9.10;1.00
22578;DHT22;11455;52.390;13.028;2023-04-28T04:48:11;9.10;1.00
22578;DHT22;11455;52.390;13.028;2023-04-28T04:50:36;9.10;1.00
22578;DHT22;11455;52.390;13.028;2023-04-28T04:53:03;9.10;1.00
22578;DHT22;11455;52.390;13.028;2023-04-28T04:55:29;9.10;1.00
22578;DHT22;11455;52.390;13.028;2023-04-28T04:57:56;9.10;1.00
22578;DHT22;11455;52.390;13.028;2023-04-28T05:00:27;9.10;1.00
22578;DHT22;11455;52.390;13.028;2023-04-28T05:02:53;9.10;1.00
22578;DHT22;11455;52.390;13.028;2023-04-28T05:05:19;9.20;1.00
22578;DHT22;11455;52.390;13.028;2023-04-28T05:07:50;9.20;1.00
22578;DHT22;11455;52.390;13.028;2023-04-28T05:10:16;9.30;1.00
22578;DHT22;11455;52.390;13.028;2023-04-28T05:12:42;9.30;1.00
22578;DHT22;11455;52.390;13.028;2023-04-28T05:15:09;9.40;1.00
22578;DHT22;11455;52.390;13.028;2023-04-28T05:17:40;9.40;1.00
22578;DHT22;11455;52.390;13.028;2023-04-28T05:20:06;9.30;1.00
22578;DHT22;11455;52.390;13.028;2023-04-28T05:22:32;9.40;1.00
22578;DHT22;11455;52.390;13.028;2023-04-28T05:24:57;9.40;1.00
22578;DHT22;11455;52.390;13.028;2023-04-28T05:27:23;9.40;1.00
22578;DHT22;11455;52.390;13.028;2023-04-28T05:29:49;9.40;1.00
22578;DHT22;11455;52.390;13.028;2023-04-28T05:32:18;9.50;1.00
22578;DHT22;11455;52.390;13.028;2023-04-28T05:34:44;9.50;1.00
22578;DHT22;11455;52.390;13.028;2023-04-28T05:37:10;9.50;1.00
22578;DHT22;11455;52.390;13.028;2023-04-28T05:39:38;9.60;1.00
22578;DHT22;11455;52.390;13.028;2023-04-28T05:42:05;9.60;1.00
22578;DHT22;11455;52.390;13.028;2023-04-28T05:44:31;9.70;1.00
22578;DHT22;11455;52.390;13.028;2023-04-28T05:46:57;9.70;1.00
22578;DHT22;11455;52.390;13.028;2023-04-28T05:49:25;9.70;1.00
22578;DHT22;11455;52.390;13.028;2023-04-28T05:51:51;9.80;1.00
22578;DHT22;11455;52.390;13.028;2023-04-28T05:54:17;9.90;1.00
22578;DHT22;11455;52.390;13.028;2023-04-28T05:56:45;10.00;1.00
22578;DHT22;11455;52.390;13.028;2023-04-28T05:59:11;10.00;1.00
22578;DHT22;11455;52.390;13.028;2023-04-28T06:01:37;10.00;1.00
22578;DHT22;11455;52.390;13.028;2023-04-28T06:04:03;10.00;1.00
22578;DHT22;11455;52.390;13.028;2023-04-28T06:06:29;10.10;1.00
22578;DHT22;11455;52.390;13.028;2023-04-28T06:08:57;10.10;1.00
22578;DHT22;11455;52.390;13.028;2023-04-28T06:11:24;10.10;1.00
22578;DHT22;11455;52.390;13.028;2023-04-28T06:13:50;10.10;1.00
22578;DHT22;11455;52.390;13.028;2023-04-28T06:16:17;10.20;1.00
22578;DHT22;11455;52.390;13.028;2023-04-28T06:18:45;10.30;1.00
22578;DHT22;11455;52.390;13.028;2023-04-28T06:21:11;10.40;1.00
22578;DHT22;11455;52.390;13.028;2023-04-28T06:23:37;10.40;1.00
22578;DHT22;11455;52.390;13.028;2023-04-28T06:26:05;10.50;1.00
22578;DHT22;11455;52.390;13.028;2023-04-28T06:28:30;10.50;1.00
22578;DHT22;11455;52.390;13.028;2023-04-28T06:30:56;10.60;1.00
22578;DHT22;11455;52.390;13.028;2023-04-28T06:33:24;10.70;1.00
22578;DHT22;11455;52.390;13.028;2023-04-28T06:35:49;10.80;1.00
22578;DHT22;11455;52.390;13.028;2023-04-28T06:38:16;10.80;1.00
22578;DHT22;11455;52.390;13.028;2023-04-28T06:40:41;10.70;1.00
22578;DHT22;11455;52.390;13.028;2023-04-28T06:43:07;10.70;1.00
22578;DHT22;11455;52.390;13.028;2023-04-28T06:45:37;10.80;1.00
22578;DHT22;11455;52.390;13.028;2023-04-28T06:48:03;10.80;1.00
22578;DHT22;11455;52.390;13.028;2023-04-28T06:50:29;10.80;1.00
22578;DHT22;11455;52.390;13.028;2023-04-28T06:52:55;10.90;1.00
22578;DHT22;11455;52.390;13.028;2023-04-28T06:55:20;10.90;1.00
22578;DHT22;11455;52.390;13.028;2023-04-28T06:57:46;11.00;1.00
22578;DHT22;11455;52.390;13.028;2023-04-28T07:00:12;11.00;1.00
22578;DHT22;11455;52.390;13.028;2023-04-28T07:02:38;11.00;1.00
22578;DHT22;11455;52.390;13.028;2023-04-28T07:05:04;11.00;1.00
22578;DHT22;11455;52.390;13.028;2023-04-28T07:07:30;11.10;1.00
22578;DHT22;11455;52.390;13.028;2023-04-28T07:09:55;11.10;1.00
22578;DHT22;11455;52.390;13.028;2023-04-28T07:12:21;11.10;1.00
22578;DHT22;11455;52.390;13.028;2023-04-28T07:14:47;11.20;1.00
22578;DHT22;11455;52.390;13.028;2023-04-28T07:17:13;11.30;1.00
22578;DHT22;11455;52.390;13.028;2023-04-28T07:19:39;11.40;1.00
22578;DHT22;11455;52.390;13.028;2023-04-28T07:22:05;11.50;1.00
22578;DHT22;11455;52.390;13.028;2023-04-28T07:24:31;11.50;1.00
22578;DHT22;11455;52.390;13.028;2023-04-28T07:26:59;11.60;1.00
22578;DHT22;11455;52.390;13.028;2023-04-28T07:29:25;11.60;1.00
22578;DHT22;11455;52.390;13.028;2023-04-28T07:31:53;11.60;1.00
22578;DHT22;11455;52.390;13.028;2023-04-28T07:34:19;11.70;1.00
22578;DHT22;11455;52.390;13.028;2023-04-28T07:36:45;11.70;1.00
22578;DHT22;11455;52.390;13.028;2023-04-28T07:39:11;11.60;1.00
22578;DHT22;11455;52.390;13.028;2023-04-28T07:41:37;11.70;1.00
22578;DHT22;11455;52.390;13.028;2023-04-28T07:44:03;11.70;1.00
22578;DHT22;11455;52.390;13.028;2023-04-28T07:46:29;11.80;1.00
22578;DHT22;11455;52.390;13.028;2023-04-28T07:48:54;11.80;1.00
22578;DHT22;11455;52.390;13.028;2023-04-28T07:51:21;11.90;1.00
22578;DHT22;11455;52.390;13.028;2023-04-28T07:53:46;11.90;1.00
22578;DHT22;11455;52.390;13.028;2023-04-28T07:56:12;12.00;1.00
22578;DHT22;11455;52.390;13.028;2023-04-28T07:58:38;12.00;1.00
22578;DHT22;11455;52.390;13.028;2023-04-28T08:01:03;12.10;1.00
22578;DHT22;11455;52.390;13.028;2023-04-28T08:03:29;12.20;1.00
22578;DHT22;11455;52.390;13.028;2023-04-28T08:05:55;12.20;1.00
22578;DHT22;11455;52.390;13.028;2023-04-28T08:08:21;12.30;1.00
22578;DHT22;11455;52.390;13.028;2023-04-28T08:10:46;12.30;1.00
22578;DHT22;11455;52.390;13.028;2023-04-28T08:13:14;12.40;1.00
22578;DHT22;11455;52.390;13.028;2023-04-28T08:15:41;12.40;1.00
22578;DHT22;11455;52.390;13.028;2023-04-28T08:18:06;12.40;1.00
22578;DHT22;11455;52.390;13.028;2023-04-28T08:20:32;12.60;1.00
22578;DHT22;11455;52.390;13.028;2023-04-28T08:22:58;12.70;1.00
22578;DHT22;11455;52.390;13.028;2023-04-28T08:25:26;12.70;1.00
22578;DHT22;11455;52.390;13.028;2023-04-28T08:27:52;12.80;1.00
22578;DHT22;11455;52.390;13.028;2023-04-28T08:30:20;12.70;1.00
22578;DHT22;11455;52.390;13.028;2023-04-28T08:32:46;12.80;1.00
22578;DHT22;11455;52.390;13.028;2023-04-28T08:35:11;12.90;1.00
22578;DHT22;11455;52.390;13.028;2023-04-28T08:37:40;13.00;1.00
22578;DHT22;11455;52.390;13.028;2023-04-28T08:40:05;13.00;1.00
22578;DHT22;11455;52.390;13.028;2023-04-28T08:42:34;13.00;1.00
22578;DHT22;11455;52.390;13.028;2023-04-28T08:45:00;13.00;1.00
22578;DHT22;11455;52.390;13.028;2023-04-28T08:49:56;13.10;1.00
22578;DHT22;11455;52.390;13.028;2023-04-28T08:52:26;13.20;1.00
22578;DHT22;11455;52.390;13.028;2023-04-28T08:54:52;13.20;1.00
22578;DHT22;11455;52.390;13.028;2023-04-28T08:57:18;13.20;1.00
22578;DHT22;11455;52.390;13.028;2023-04-28T08:59:44;13.20;1.00
22578;DHT22;11455;52.390;13.028;2023-04-28T09:02:10;13.40;1.00
22578;DHT22;11455;52.390;13.028;2023-04-28T09:04:38;13.50;1.00
22578;DHT22;11455;52.390;13.028;2023-04-28T09:07:09;13.60;1.00
22578;DHT22;11455;52.390;13.028;2023-04-28T09:09:35;13.60;1.00
22578;DHT22;11455;52.390;13.028;2023-04-28T09:12:02;13.50;1.00
22578;DHT22;11455;52.390;13.028;2023-04-28T09:14:31;13.50;1.00
22578;DHT22;11455;52.390;13.028;2023-04-28T09:16:57;13.50;1.00
22578;DHT22;11455;52.390;13.028;2023-04-28T09:19:23;13.60;1.00
22578;DHT22;11455;52.390;13.028;2023-04-28T09:21:52;13.70;1.00
22578;DHT22;11455;52.390;13.028;2023-04-28T09:26:54;13.80;1.00
22578;DHT22;11455;52.390;13.028;2023-04-28T09:29:19;13.70;1.00
22578;DHT22;11455;52.390;13.028;2023-04-28T09:31:45;13.80;1.00
22578;DHT22;11455;52.390;13.028;2023-04-28T09:34:11;13.90;1.00
22578;DHT22;11455;52.390;13.028;2023-04-28T09:36:37;14.00;1.00
22578;DHT22;11455;52.390;13.028;2023-04-28T09:39:03;14.10;1.00
22578;DHT22;11455;52.390;13.028;2023-04-28T09:41:38;14.20;1.00
22578;DHT22;11455;52.390;13.028;2023-04-28T09:46:36;14.30;1.00
22578;DHT22;11455;52.390;13.028;2023-04-28T09:49:02;14.40;1.00
22578;DHT22;11455;52.390;13.028;2023-04-28T09:51:28;14.50;1.00
22578;DHT22;11455;52.390;13.028;2023-04-28T09:53:54;14.50;1.00
22578;DHT22;11455;52.390;13.028;2023-04-28T09:56:22;14.50;1.00
22578;DHT22;11455;52.390;13.028;2023-04-28T09:58:49;14.50;1.00
22578;DHT22;11455;52.390;13.028;2023-04-28T10:01:19;14.60;1.00
22578;DHT22;11455;52.390;13.028;2023-04-28T10:03:45;14.60;1.00
22578;DHT22;11455;52.390;13.028;2023-04-28T10:06:10;14.60;1.00
22578;DHT22;11455;52.390;13.028;2023-04-28T10:08:39;14.60;1.00
22578;DHT22;11455;52.390;13.028;2023-04-28T10:11:04;14.70;1.00
22578;DHT22;11455;52.390;13.028;2023-04-28T10:13:31;14.80;1.00
22578;DHT22;11455;52.390;13.028;2023-04-28T10:15:59;14.90;1.00
22578;DHT22;11455;52.390;13.028;2023-04-28T10:18:27;14.90;1.00
22578;DHT22;11455;52.390;13.028;2023-04-28T10:20:59;15.00;1.00
22578;DHT22;11455;52.390;13.028;2023-04-28T10:25:59;15.10;1.00
22578;DHT22;11455;52.390;13.028;2023-04-28T10:28:28;15.10;1.00
22578;DHT22;11455;52.390;13.028;2023-04-28T10:31:13;15.20;1.00
22578;DHT22;11455;52.390;13.028;2023-04-28T10:33:39;15.20;1.00
22578;DHT22;11455;52.390;13.028;2023-04-28T10:36:05;15.30;1.00
22578;DHT22;11455;52.390;13.028;2023-04-28T10:38:31;15.40;1.00
22578;DHT22;11455;52.390;13.028;2023-04-28T10:40:57;15.40;1.00
22578;DHT22;11455;52.390;13.028;2023-04-28T10:54:13;15.40;1.00
22578;DHT22;11455;52.390;13.028;2023-04-28T11:06:32;15.40;1.00
22578;DHT22;11455;52.390;13.028;2023-04-28T11:08:59;15.50;1.00
22578;DHT22;11455;52.390;13.028;2023-04-28T11:11:30;15.50;1.00
22578;DHT22;11455;52.390;13.028;2023-04-28T11:19:20;15.50;1.00
22578;DHT22;11455;52.390;13.028;2023-04-28T11:21:46;15.60;1.00
22578;DHT22;11455;52.390;13.028;2023-04-28T11:24:12;15.60;1.00
22578;DHT22;11455;52.390;13.028;2023-04-28T11:26:40;15.70;1.00
22578;DHT22;11455;52.390;13.028;2023-04-28T11:29:06;15.80;1.00
22578;DHT22;11455;52.390;13.028;2023-04-28T11:31:33;15.90;1.00
22578;DHT22;11455;52.390;13.028;2023-04-28T11:34:10;16.00;1.00
22578;DHT22;11455;52.390;13.028;2023-04-28T11:36:39;16.00;1.00
22578;DHT22;11455;52.390;13.028;2023-04-28T11:39:08;16.10;1.00
22578;DHT22;11455;52.390;13.028;2023-04-28T11:44:00;16.00;1.00
22578;DHT22;11455;52.390;13.028;2023-04-28T11:46:33;16.00;1.00
22578;DHT22;11455;52.390;13.028;2023-04-28T11:49:03;16.00;1.00
22578;DHT22;11455;52.390;13.028;2023-04-28T11:51:33;15.90;1.00
22578;DHT22;11455;52.390;13.028;2023-04-28T11:53:59;15.90;1.00
22578;DHT22;11455;52.390;13.028;2023-04-28T11:56:26;16.00;1.00
22578;DHT22;11455;52.390;13.028;2023-04-28T11:59:04;16.00;1.00
22578;DHT22;11455;52.390;13.028;2023-04-28T12:01:31;16.10;1.00
22578;DHT22;11455;52.390;13.028;2023-04-28T12:03:57;16.20;1.00
22578;DHT22;11455;52.390;13.028;2023-04-28T12:06:23;16.20;1.00
22578;DHT22;11455;52.390;13.028;2023-04-28T12:08:48;16.20;1.00
22578;DHT22;11455;52.390;13.028;2023-04-28T12:11:19;16.20;1.00
22578;DHT22;11455;52.390;13.028;2023-04-28T12:14:03;16.20;1.00
22578;DHT22;11455;52.390;13.028;2023-04-28T12:16:39;16.30;1.00
22578;DHT22;11455;52.390;13.028;2023-04-28T12:19:07;16.30;1.00
22578;DHT22;11455;52.390;13.028;2023-04-28T12:21:35;16.30;1.00
22578;DHT22;11455;52.390;13.028;2023-04-28T12:24:11;16.30;1.00
22578;DHT22;11455;52.390;13.028;2023-04-28T12:26:37;16.30;1.00
22578;DHT22;11455;52.390;13.028;2023-04-28T12:29:03;16.30;1.00
22578;DHT22;11455;52.390;13.028;2023-04-28T12:31:28;16.30;1.00
22578;DHT22;11455;52.390;13.028;2023-04-28T12:33:54;16.40;1.00
22578;DHT22;11455;52.390;13.028;2023-04-28T12:36:20;16.40;1.00
22578;DHT22;11455;52.390;13.028;2023-04-28T12:38:48;16.40;1.00
22578;DHT22;11455;52.390;13.028;2023-04-28T12:41:14;16.50;1.00
22578;DHT22;11455;52.390;13.028;2023-04-28T12:43:43;16.50;1.00
22578;DHT22;11455;52.390;13.028;2023-04-28T12:46:09;16.40;1.00
22578;DHT22;11455;52.390;13.028;2023-04-28T12:48:35;16.30;1.00
22578;DHT22;11455;52.390;13.028;2023-04-28T12:51:01;16.30;1.00
22578;DHT22;11455;52.390;13.028;2023-04-28T12:53:27;16.40;1.00
22578;DHT22;11455;52.390;13.028;2023-04-28T12:55:53;16.50;1.00
22578;DHT22;11455;52.390;13.028;2023-04-28T12:58:18;16.50;1.00
22578;DHT22;11455;52.390;13.028;2023-04-28T13:00:44;16.50;1.00
22578;DHT22;11455;52.390;13.028;2023-04-28T13:03:09;16.50;1.00
22578;DHT22;11455;52.390;13.028;2023-04-28T13:05:36;16.50;1.00
22578;DHT22;11455;52.390;13.028;2023-04-28T13:08:01;16.40;1.00
22578;DHT22;11455;52.390;13.028;2023-04-28T13:10:27;16.30;1.00
22578;DHT22;11455;52.390;13.028;2023-04-28T13:12:53;16.30;1.00
22578;DHT22;11455;52.390;13.028;2023-04-28T13:15:18;16.30;1.00
22578;DHT22;11455;52.390;13.028;2023-04-28T13:17:44;16.30;1.00
22578;DHT22;11455;52.390;13.028;2023-04-28T13:20:10;16.30;1.00
22578;DHT22;11455;52.390;13.028;2023-04-28T13:22:36;16.30;1.00
22578;DHT22;11455;52.390;13.028;2023-04-28T13:25:02;16.30;1.00
22578;DHT22;11455;52.390;13.028;2023-04-28T13:27:28;16.30;1.00
22578;DHT22;11455;52.390;13.028;2023-04-28T13:29:55;16.20;1.00
22578;DHT22;11455;52.390;13.028;2023-04-28T13:32:23;16.10;1.00
22578;DHT22;11455;52.390;13.028;2023-04-28T13:34:49;16.00;1.00
22578;DHT22;11455;52.390;13.028;2023-04-28T13:37:15;15.90;1.00
22578;DHT22;11455;52.390;13.028;2023-04-28T13:39:41;15.80;1.00
22578;DHT22;11455;52.390;13.028;2023-04-28T13:42:06;15.80;1.00
22578;DHT22;11455;52.390;13.028;2023-04-28T13:44:32;15.80;1.00
22578;DHT22;11455;52.390;13.028;2023-04-28T13:46:58;15.90;1.00
22578;DHT22;11455;52.390;13.028;2023-04-28T13:49:24;15.90;1.00
22578;DHT22;11455;52.390;13.028;2023-04-28T13:51:49;15.80;1.00
22578;DHT22;11455;52.390;13.028;2023-04-28T13:54:15;15.80;1.00
22578;DHT22;11455;52.390;13.028;2023-04-28T13:56:41;15.90;1.00
22578;DHT22;11455;52.390;13.028;2023-04-28T13:59:09;15.90;1.00
22578;DHT22;11455;52.390;13.028;2023-04-28T14:01:34;15.80;1.00
22578;DHT22;11455;52.390;13.028;2023-04-28T14:04:00;15.70;1.00
22578;DHT22;11455;52.390;13.028;2023-04-28T14:06:26;15.70;1.00
22578;DHT22;11455;52.390;13.028;2023-04-28T14:08:52;15.70;1.00
22578;DHT22;11455;52.390;13.028;2023-04-28T14:11:17;15.70;1.00
22578;DHT22;11455;52.390;13.028;2023-04-28T14:13:43;15.80;1.00
22578;DHT22;11455;52.390;13.028;2023-04-28T14:16:09;15.80;1.00
22578;DHT22;11455;52.390;13.028;2023-04-28T14:18:35;15.80;1.00
22578;DHT22;11455;52.390;13.028;2023-04-28T14:21:03;15.80;1.00
22578;DHT22;11455;52.390;13.028;2023-04-28T14:23:32;15.80;1.00
22578;DHT22;11455;52.390;13.028;2023-04-28T14:25:59;15.80;1.00
22578;DHT22;11455;52.390;13.028;2023-04-28T14:28:25;15.70;1.00
22578;DHT22;11455;52.390;13.028;2023-04-28T14:30:54;15.60;1.00
22578;DHT22;11455;52.390;13.028;2023-04-28T14:33:23;15.50;1.00
22578;DHT22;11455;52.390;13.028;2023-04-28T14:35:49;15.50;1.00
22578;DHT22;11455;52.390;13.028;2023-04-28T14:38:14;15.50;1.00
22578;DHT22;11455;52.390;13.028;2023-04-28T14:40:40;15.40;1.00
22578;DHT22;11455;52.390;13.028;2023-04-28T14:43:07;15.40;1.00
22578;DHT22;11455;52.390;13.028;2023-04-28T14:45:34;15.20;1.00
22578;DHT22;11455;52.390;13.028;2023-04-28T14:48:02;15.10;1.00
22578;DHT22;11455;52.390;13.028;2023-04-28T14:50:28;15.20;1.00
22578;DHT22;11455;52.390;13.028;2023-04-28T14:52:54;15.10;1.00
22578;DHT22;11455;52.390;13.028;2023-04-28T14:55:19;15.20;1.00
22578;DHT22;11455;52.390;13.028;2023-04-28T14:57:45;15.20;1.00
22578;DHT22;11455;52.390;13.028;2023-04-28T15:00:15;15.30;1.00
22578;DHT22;11455;52.390;13.028;2023-04-28T15:02:41;15.30;1.00
22578;DHT22;11455;52.390;13.028;2023-04-28T15:05:06;15.30;1.00
22578;DHT22;11455;52.390;13.028;2023-04-28T15:07:33;15.40;1.00
22578;DHT22;11455;52.390;13.028;2023-04-28T15:09:59;15.40;1.00
22578;DHT22;11455;52.390;13.028;2023-04-28T15:12:25;15.40;1.00
22578;DHT22;11455;52.390;13.028;2023-04-28T15:14:50;15.40;1.00
22578;DHT22;11455;52.390;13.028;2023-04-28T15:17:18;15.50;1.00
22578;DHT22;11455;52.390;13.028;2023-04-28T15:19:45;15.50;1.00
22578;DHT22;11455;52.390;13.028;2023-04-28T15:22:11;15.50;1.00
22578;DHT22;11455;52.390;13.028;2023-04-28T15:24:37;15.50;1.00
22578;DHT22;11455;52.390;13.028;2023-04-28T15:27:03;15.40;1.00
22578;DHT22;11455;52.390;13.028;2023-04-28T15:29:29;15.40;1.00
22578;DHT22;11455;52.390;13.028;2023-04-28T15:31:55;15.30;1.00
22578;DHT22;11455;52.390;13.028;2023-04-28T15:34:21;15.20;1.00
22578;DHT22;11455;52.390;13.028;2023-04-28T15:36:50;15.30;1.00
22578;DHT22;11455;52.390;13.028;2023-04-28T15:39:17;15.30;1.00
22578;DHT22;11455;52.390;13.028;2023-04-28T15:41:43;15.30;1.00
22578;DHT22;11455;52.390;13.028;2023-04-28T15:44:17;15.30;1.00
22578;DHT22;11455;52.390;13.028;2023-04-28T15:46:43;15.30;1.00
22578;DHT22;11455;52.390;13.028;2023-04-28T15:49:09;15.30;1.00
22578;DHT22;11455;52.390;13.028;2023-04-28T15:51:36;15.30;1.00
22578;DHT22;11455;52.390;13.028;2023-04-28T15:54:02;15.40;1.00
22578;DHT22;11455;52.390;13.028;2023-04-28T15:56:28;15.40;1.00
22578;DHT22;11455;52.390;13.028;2023-04-28T15:59:02;15.40;1.00
22578;DHT22;11455;52.390;13.028;2023-04-28T16:01:29;15.50;1.00
22578;DHT22;11455;52.390;13.028;2023-04-28T16:03:54;15.60;1.00
22578;DHT22;11455;52.390;13.028;2023-04-28T16:06:20;15.80;1.00
22578;DHT22;11455;52.390;13.028;2023-04-28T16:08:49;15.90;1.00
22578;DHT22;11455;52.390;13.028;2023-04-28T16:11:15;15.90;1.00
22578;DHT22;11455;52.390;13.028;2023-04-28T16:13:43;15.80;1.00